Time;durP1;ratioP1;P1;durP2;ratioP2;P2;SDS_P1;SDS_P2;PMS_P1;PMS_P2;Temp;Humidity;BMP_temperature;BMP_pressure;BME280_temperature;BME280_humidity;BME280_pressure;Samples;Min_cycle;Max_cycle;Signal;HPM_P1;HPM_P2
2021/07/11 00:00:25;;;;;;;6.72;5.18;;;;;;;;;;5117978;28;20045;-89
2021/07/11 00:02:51;;;;;;;8.10;5.80;;;;;;;;;;5118377;28;20024;-88
2021/07/11 00:05:18;;;;;;;6.28;5.65;;;;;;;;;;5121518;28;20023;-88
2021/07/11 00:07:44;;;;;;;6.75;5.38;;;;;;;;;;5120581;28;20111;-88
2021/07/11 00:10:12;;;;;;;8.27;4.95;;;;;;;;;;5120122;28;20046;-88
2021/07/11 00:12:39;;;;;;;9.02;5.63;;;;;;;;;;5121452;27;20041;-88
2021/07/11 00:15:09;;;;;;;7.60;5.63;;;;;;;;;;5121093;28;20060;-88
2021/07/11 00:17:36;;;;;;;8.73;5.65;;;;;;;;;;5121113;28;20024;-88
2021/07/11 00:20:02;;;;;;;10.43;5.38;;;;;;;;;;5121620;28;20402;-88
2021/07/11 00:22:28;;;;;;;7.80;5.72;;;;;;;;;;5120304;28;20024;-88
2021/07/11 00:24:54;;;;;;;7.55;5.40;;;;;;;;;;5121110;28;20363;-87
2021/07/11 00:27:20;;;;;;;9.05;5.80;;;;;;;;;;5120304;28;20409;-87
2021/07/11 00:29:46;;;;;;;7.22;5.90;;;;;;;;;;5121103;28;20028;-87
2021/07/11 00:32:13;;;;;;;6.63;5.90;;;;;;;;;;5119972;28;20023;-88
2021/07/11 00:34:39;;;;;;;8.02;5.72;;;;;;;;;;5121095;28;20110;-87
2021/07/11 00:37:05;;;;;;;14.23;7.22;;;;;;;;;;5121172;28;20030;-87
2021/07/11 00:39:31;;;;;;;9.77;6.50;;;;;;;;;;5120887;28;20027;-88
2021/07/11 00:41:57;;;;;;;8.88;5.90;;;;;;;;;;5120910;28;20504;-88
2021/07/11 00:44:23;;;;;;;8.30;6.35;;;;;;;;;;5120658;28;20063;-88
2021/07/11 00:46:49;;;;;;;8.05;6.38;;;;;;;;;;5120946;28;20314;-88
2021/07/11 00:49:15;;;;;;;7.20;6.50;;;;;;;;;;5120987;28;20016;-87
2021/07/11 00:51:42;;;;;;;10.02;7.15;;;;;;;;;;5120947;28;20081;-87
2021/07/11 00:54:08;;;;;;;8.93;6.70;;;;;;;;;;5119708;28;20115;-88
2021/07/11 00:56:34;;;;;;;9.38;6.32;;;;;;;;;;5119366;28;20038;-88
2021/07/11 00:59:00;;;;;;;8.02;7.00;;;;;;;;;;5120588;28;20068;-88
2021/07/11 01:01:38;;;;;;;8.57;6.57;;;;;;;;;;5120610;28;20051;-88
2021/07/11 01:04:13;;;;;;;8.93;6.55;;;;;;;;;;5120487;28;20351;-88
2021/07/11 01:06:41;;;;;;;14.02;6.55;;;;;;;;;;5120268;28;20020;-88
2021/07/11 01:09:09;;;;;;;8.70;6.55;;;;;;;;;;5119394;28;20313;-87
2021/07/11 01:11:38;;;;;;;16.77;6.97;;;;;;;;;;5120264;28;20020;-88
2021/07/11 01:14:06;;;;;;;15.70;7.38;;;;;;;;;;5119707;28;20044;-88
2021/07/11 01:16:33;;;;;;;10.77;7.13;;;;;;;;;;5119218;28;20026;-88
2021/07/11 01:19:05;;;;;;;9.68;7.05;;;;;;;;;;5119199;28;20012;-88
2021/07/11 01:21:33;;;;;;;9.50;6.75;;;;;;;;;;5120383;28;20023;-88
2021/07/11 01:23:59;;;;;;;8.60;7.22;;;;;;;;;;5119998;28;20374;-88
2021/07/11 01:26:26;;;;;;;7.53;6.75;;;;;;;;;;5120302;28;20062;-88
2021/07/11 01:28:53;;;;;;;8.25;7.13;;;;;;;;;;5119998;28;20069;-87
2021/07/11 01:31:21;;;;;;;12.10;7.47;;;;;;;;;;5119857;28;20066;-88
2021/07/11 01:33:47;;;;;;;8.05;7.15;;;;;;;;;;5120098;28;20441;-87
2021/07/11 01:36:13;;;;;;;8.60;6.85;;;;;;;;;;5119940;28;20111;-88
2021/07/11 01:38:41;;;;;;;9.27;6.95;;;;;;;;;;5119891;28;20056;-88
2021/07/11 01:41:09;;;;;;;9.20;7.10;;;;;;;;;;5119624;28;20023;-87
2021/07/11 01:43:35;;;;;;;9.07;7.25;;;;;;;;;;5119643;28;20023;-88
2021/07/11 01:46:01;;;;;;;9.57;6.75;;;;;;;;;;5129387;28;20032;-87
2021/07/11 01:48:29;;;;;;;7.72;6.63;;;;;;;;;;5118776;28;20137;-87
2021/07/11 01:50:55;;;;;;;13.00;7.55;;;;;;;;;;5119642;28;20071;-84
2021/07/11 01:53:26;;;;;;;9.05;7.90;;;;;;;;;;5119064;28;20024;-80
2021/07/11 01:55:53;;;;;;;8.98;7.30;;;;;;;;;;5118857;28;20483;-81
2021/07/11 01:58:19;;;;;;;10.30;7.60;;;;;;;;;;5118887;28;20031;-81
2021/07/11 02:00:46;;;;;;;9.57;7.13;;;;;;;;;;5118677;28;20035;-80
2021/07/11 02:03:16;;;;;;;9.98;7.25;;;;;;;;;;5118410;28;20051;-81
2021/07/11 02:05:42;;;;;;;10.88;7.30;;;;;;;;;;5118762;28;20027;-79
2021/07/11 02:08:08;;;;;;;9.95;7.28;;;;;;;;;;5118740;28;20091;-80
2021/07/11 02:10:34;;;;;;;8.98;7.30;;;;;;;;;;5118574;28;20023;-80
2021/07/11 02:13:03;;;;;;;10.98;7.35;;;;;;;;;;5118483;28;20024;-80
2021/07/11 02:15:29;;;;;;;8.57;7.32;;;;;;;;;;5118522;28;20055;-80
2021/07/11 02:17:56;;;;;;;8.77;7.03;;;;;;;;;;5118443;28;20337;-80
2021/07/11 02:20:23;;;;;;;10.07;8.00;;;;;;;;;;5118281;28;20028;-81
2021/07/11 02:22:50;;;;;;;10.27;7.35;;;;;;;;;;5118142;28;20433;-81
2021/07/11 02:25:17;;;;;;;10.05;7.47;;;;;;;;;;5117760;28;20041;-81
2021/07/11 02:27:45;;;;;;;8.48;7.43;;;;;;;;;;5117973;28;20405;-81
2021/07/11 02:30:14;;;;;;;11.00;7.75;;;;;;;;;;5118201;28;20126;-81
2021/07/11 02:32:44;;;;;;;12.32;8.48;;;;;;;;;;5118224;28;20038;-81
2021/07/11 02:35:11;;;;;;;12.35;8.75;;;;;;;;;;5118352;28;20035;-81
2021/07/11 02:37:40;;;;;;;12.55;9.25;;;;;;;;;;5118029;28;20038;-80
2021/07/11 02:40:07;;;;;;;11.90;8.18;;;;;;;;;;5117901;28;20035;-80
2021/07/11 02:42:33;;;;;;;12.98;8.77;;;;;;;;;;5117793;28;20024;-81
2021/07/11 02:45:01;;;;;;;10.48;8.68;;;;;;;;;;5118113;28;20122;-80
2021/07/11 02:47:29;;;;;;;12.00;9.77;;;;;;;;;;5117870;28;20409;-81
2021/07/11 02:49:57;;;;;;;10.18;9.07;;;;;;;;;;5117833;28;20412;-81
2021/07/11 02:52:24;;;;;;;10.70;9.30;;;;;;;;;;5117892;28;20032;-81
2021/07/11 02:54:56;;;;;;;13.98;10.30;;;;;;;;;;5117772;28;20062;-81
2021/07/11 02:57:25;;;;;;;14.18;10.20;;;;;;;;;;5117952;28;20023;-80
2021/07/11 02:59:53;;;;;;;15.00;10.75;;;;;;;;;;5117736;28;20428;-80
2021/07/11 03:02:20;;;;;;;14.68;10.90;;;;;;;;;;5117787;28;20027;-80
2021/07/11 03:04:46;;;;;;;16.95;11.40;;;;;;;;;;5117630;28;20055;-81
2021/07/11 03:07:12;;;;;;;14.63;11.32;;;;;;;;;;5117567;28;20024;-80
2021/07/11 03:09:41;;;;;;;17.33;11.80;;;;;;;;;;5117338;28;20016;-80
2021/07/11 03:12:07;;;;;;;13.00;11.30;;;;;;;;;;5117606;28;20099;-80
2021/07/11 03:14:34;;;;;;;13.48;10.63;;;;;;;;;;5117215;28;20425;-80
2021/07/11 03:17:01;;;;;;;14.73;11.55;;;;;;;;;;5116482;28;20118;-80
2021/07/11 03:19:28;;;;;;;12.95;10.73;;;;;;;;;;5116378;28;20023;-80
2021/07/11 03:21:54;;;;;;;14.35;10.95;;;;;;;;;;5117432;28;20073;-80
2021/07/11 03:24:23;;;;;;;13.57;10.80;;;;;;;;;;5117627;28;20055;-80
2021/07/11 03:26:51;;;;;;;13.32;11.23;;;;;;;;;;5117529;28;20020;-80
2021/07/11 03:29:38;;;;;;;17.35;11.90;;;;;;;;;;5117456;28;20463;-80
2021/07/11 03:32:04;;;;;;;13.20;11.30;;;;;;;;;;5117486;28;20031;-80
2021/07/11 03:34:31;;;;;;;15.88;11.25;;;;;;;;;;5117034;28;20329;-81
2021/07/11 03:37:07;;;;;;;14.55;11.52;;;;;;;;;;5117852;28;20016;-80
2021/07/11 03:39:38;;;;;;;19.02;11.48;;;;;;;;;;5121585;28;20023;-79
2021/07/11 03:42:05;;;;;;;12.73;11.40;;;;;;;;;;5121479;28;20048;-80
2021/07/11 03:44:33;;;;;;;14.48;11.35;;;;;;;;;;5121387;28;20024;-79
2021/07/11 03:47:00;;;;;;;14.18;10.98;;;;;;;;;;5121148;28;20115;-79
2021/07/11 03:49:26;;;;;;;18.50;11.60;;;;;;;;;;5121322;28;20022;-79
2021/07/11 03:51:56;;;;;;;13.68;10.93;;;;;;;;;;5121094;28;20027;-80
2021/07/11 03:54:22;;;;;;;13.20;10.38;;;;;;;;;;5121260;28;20393;-81
2021/07/11 03:56:49;;;;;;;15.63;10.93;;;;;;;;;;5121215;28;20019;-81
2021/07/11 03:59:16;;;;;;;15.02;10.25;;;;;;;;;;5119701;28;20031;-81
2021/07/11 04:01:42;;;;;;;15.27;11.02;;;;;;;;;;5121065;28;20020;-80
2021/07/11 04:04:19;;;;;;;17.63;11.15;;;;;;;;;;5120940;28;20026;-80
2021/07/11 04:06:47;;;;;;;14.57;10.70;;;;;;;;;;5120913;28;20020;-80
2021/07/11 04:09:16;;;;;;;15.90;10.45;;;;;;;;;;5121071;28;20012;-80
2021/07/11 04:11:42;;;;;;;16.23;11.02;;;;;;;;;;5120982;28;20020;-81
2021/07/11 04:14:08;;;;;;;13.38;10.18;;;;;;;;;;5120557;28;20047;-81
2021/07/11 04:16:35;;;;;;;14.30;10.23;;;;;;;;;;5120695;28;20405;-81
2021/07/11 04:19:01;;;;;;;11.85;9.70;;;;;;;;;;5119427;28;20354;-80
2021/07/11 04:21:28;;;;;;;15.57;10.80;;;;;;;;;;5119644;28;20122;-81
2021/07/11 04:23:57;;;;;;;13.60;10.05;;;;;;;;;;5120659;28;20030;-81
2021/07/11 04:26:24;;;;;;;17.63;10.93;;;;;;;;;;5120564;28;20030;-81
2021/07/11 04:28:50;;;;;;;14.43;10.60;;;;;;;;;;5120873;28;20020;-81
2021/07/11 04:31:18;;;;;;;13.55;10.60;;;;;;;;;;5120638;28;20016;-80
2021/07/11 04:33:46;;;;;;;11.57;9.93;;;;;;;;;;5120581;28;20110;-80
2021/07/11 04:36:12;;;;;;;14.85;11.98;;;;;;;;;;5120494;28;20047;-80
2021/07/11 04:38:38;;;;;;;14.23;10.52;;;;;;;;;;5120493;28;20069;-80
2021/07/11 04:41:06;;;;;;;15.07;10.40;;;;;;;;;;5120130;28;20031;-80
2021/07/11 04:43:32;;;;;;;15.32;10.18;;;;;;;;;;5120723;28;20031;-80
2021/07/11 04:45:59;;;;;;;13.45;9.95;;;;;;;;;;5120295;28;20031;-80
2021/07/11 04:48:25;;;;;;;15.20;10.35;;;;;;;;;;5119377;28;20023;-80
2021/07/11 04:50:51;;;;;;;16.05;9.70;;;;;;;;;;5118508;28;20040;-80
2021/07/11 04:53:17;;;;;;;17.20;13.48;;;;;;;;;;5120098;28;20051;-81
2021/07/11 04:55:45;;;;;;;15.63;9.82;;;;;;;;;;5120096;28;20023;-80
2021/07/11 04:58:11;;;;;;;13.45;10.43;;;;;;;;;;5120068;28;20080;-80
2021/07/11 05:00:37;;;;;;;11.43;9.95;;;;;;;;;;5120044;28;20398;-81
2021/07/11 05:03:03;;;;;;;12.20;10.00;;;;;;;;;;5119947;28;20027;-81
2021/07/11 05:05:29;;;;;;;11.15;9.98;;;;;;;;;;5119773;28;20024;-81
2021/07/11 05:07:55;;;;;;;13.35;9.13;;;;;;;;;;5119728;28;20023;-81
2021/07/11 05:10:21;;;;;;;14.55;10.07;;;;;;;;;;5119727;28;20306;-81
2021/07/11 05:12:47;;;;;;;18.23;12.45;;;;;;;;;;5119949;28;20015;-81
2021/07/11 05:15:13;;;;;;;10.93;9.23;;;;;;;;;;5119352;28;20160;-81
2021/07/11 05:17:39;;;;;;;13.35;10.00;;;;;;;;;;5119416;28;20261;-81
2021/07/11 05:20:07;;;;;;;17.95;12.88;;;;;;;;;;5119576;28;20395;-81
2021/07/11 05:22:33;;;;;;;23.67;19.15;;;;;;;;;;5119649;28;20042;-80
2021/07/11 05:24:59;;;;;;;15.10;11.18;;;;;;;;;;5119432;28;20023;-80
2021/07/11 05:27:27;;;;;;;10.40;9.40;;;;;;;;;;5117966;28;20069;-80
2021/07/11 05:29:53;;;;;;;17.92;9.77;;;;;;;;;;5119379;28;20023;-80
2021/07/11 05:32:19;;;;;;;13.57;10.23;;;;;;;;;;5119290;28;20061;-80
2021/07/11 05:34:45;;;;;;;11.55;9.30;;;;;;;;;;5119286;28;20027;-80
2021/07/11 05:37:11;;;;;;;15.23;11.25;;;;;;;;;;5119309;28;20106;-80
2021/07/11 05:39:37;;;;;;;14.70;12.35;;;;;;;;;;5119316;28;20031;-80
2021/07/11 05:42:03;;;;;;;15.00;8.90;;;;;;;;;;5100853;28;20482;-80
2021/07/11 05:44:29;;;;;;;16.50;10.38;;;;;;;;;;5117834;28;20031;-79
2021/07/11 05:46:55;;;;;;;12.80;8.57;;;;;;;;;;5119075;28;20024;-79
2021/07/11 05:49:21;;;;;;;13.20;8.82;;;;;;;;;;5118894;28;20378;-79
2021/07/11 05:51:47;;;;;;;10.27;9.15;;;;;;;;;;5118825;28;20148;-79
2021/07/11 05:54:13;;;;;;;13.85;9.43;;;;;;;;;;5119128;28;20022;-80
2021/07/11 05:56:39;;;;;;;11.48;8.82;;;;;;;;;;5119063;28;20046;-80
2021/07/11 05:59:06;;;;;;;11.45;8.57;;;;;;;;;;5118832;28;20019;-80
2021/07/11 06:01:32;;;;;;;15.23;10.57;;;;;;;;;;5118902;28;20293;-80
2021/07/11 06:03:58;;;;;;;16.00;8.90;;;;;;;;;;5118811;28;20050;-80
2021/07/11 06:06:24;;;;;;;14.13;8.98;;;;;;;;;;5118529;28;20436;-80
2021/07/11 06:08:50;;;;;;;16.52;11.10;;;;;;;;;;5118614;28;20051;-80
2021/07/11 06:11:16;;;;;;;17.55;11.68;;;;;;;;;;5118760;28;20072;-80
2021/07/11 06:13:43;;;;;;;16.23;13.00;;;;;;;;;;5118555;28;20114;-80
2021/07/11 06:16:09;;;;;;;22.10;15.05;;;;;;;;;;5117414;28;20352;-80
2021/07/11 06:18:35;;;;;;;18.27;7.82;;;;;;;;;;5118174;28;20024;-81
2021/07/11 06:21:01;;;;;;;13.63;8.57;;;;;;;;;;5118383;28;20024;-81
2021/07/11 06:23:27;;;;;;;20.48;10.88;;;;;;;;;;5118240;28;20030;-80
2021/07/11 06:25:53;;;;;;;22.75;8.52;;;;;;;;;;5118178;28;20051;-81
2021/07/11 06:28:19;;;;;;;13.93;7.47;;;;;;;;;;5117953;28;20020;-80
2021/07/11 06:30:45;;;;;;;11.60;6.70;;;;;;;;;;5115150;28;20039;-80
2021/07/11 06:33:11;;;;;;;15.50;7.10;;;;;;;;;;5097989;28;20016;-80
2021/07/11 06:35:37;;;;;;;14.35;7.38;;;;;;;;;;5097654;28;20024;-82
2021/07/11 06:38:03;;;;;;;12.50;9.90;;;;;;;;;;5097591;28;20073;-80
2021/07/11 06:40:29;;;;;;;15.93;10.20;;;;;;;;;;5097690;28;20035;-81
2021/07/11 06:42:55;;;;;;;10.90;6.82;;;;;;;;;;5097609;28;20059;-80
2021/07/11 06:45:22;;;;;;;10.30;7.53;;;;;;;;;;5096402;28;20028;-80
2021/07/11 06:47:48;;;;;;;12.25;7.25;;;;;;;;;;5097622;28;20021;-79
2021/07/11 06:50:15;;;;;;;9.82;6.43;;;;;;;;;;5097300;28;20040;-80
2021/07/11 06:52:41;;;;;;;8.48;5.93;;;;;;;;;;5097304;28;20032;-80
2021/07/11 06:55:11;;;;;;;13.32;6.63;;;;;;;;;;5097428;28;20031;-80
2021/07/11 06:57:40;;;;;;;11.02;6.75;;;;;;;;;;5097570;28;20024;-79
2021/07/11 07:00:08;;;;;;;15.35;7.15;;;;;;;;;;5096258;28;20111;-81
2021/07/11 07:02:34;;;;;;;9.68;4.95;;;;;;;;;;5097557;28;20047;-80
2021/07/11 07:05:00;;;;;;;9.15;5.60;;;;;;;;;;5097284;28;20031;-80
2021/07/11 07:07:26;;;;;;;9.15;5.63;;;;;;;;;;5097405;28;20031;-80
2021/07/11 07:09:52;;;;;;;7.78;4.95;;;;;;;;;;5097199;28;20020;-80
2021/07/11 07:12:18;;;;;;;7.85;4.15;;;;;;;;;;5096786;28;20469;-80
2021/07/11 07:14:44;;;;;;;6.47;4.30;;;;;;;;;;5097233;28;20055;-80
2021/07/11 07:17:10;;;;;;;11.15;4.43;;;;;;;;;;5097072;28;20042;-80
2021/07/11 07:19:36;;;;;;;9.63;4.40;;;;;;;;;;5095981;28;20032;-80
2021/07/11 07:22:03;;;;;;;7.65;4.35;;;;;;;;;;5097147;28;20032;-80
2021/07/11 07:24:29;;;;;;;10.38;4.35;;;;;;;;;;5096968;28;20437;-80
2021/07/11 07:26:55;;;;;;;12.95;4.40;;;;;;;;;;5095995;28;20403;-79
2021/07/11 07:29:21;;;;;;;6.18;4.32;;;;;;;;;;5097056;28;20020;-79
2021/07/11 07:31:47;;;;;;;7.65;4.60;;;;;;;;;;5097147;28;20016;-80
2021/07/11 07:34:14;;;;;;;5.43;4.22;;;;;;;;;;5096855;28;20027;-79
2021/07/11 07:36:40;;;;;;;11.23;4.10;;;;;;;;;;5096907;28;20114;-80
2021/07/11 07:39:06;;;;;;;11.95;4.15;;;;;;;;;;5097209;28;20082;-80
2021/07/11 07:41:33;;;;;;;6.85;4.00;;;;;;;;;;5096945;28;20035;-80
2021/07/11 07:43:59;;;;;;;9.63;4.82;;;;;;;;;;5096968;28;20035;-80
2021/07/11 07:46:25;;;;;;;13.52;6.38;;;;;;;;;;5096848;28;20410;-80
2021/07/11 07:48:51;;;;;;;15.90;5.80;;;;;;;;;;5095986;28;20028;-80
2021/07/11 07:51:17;;;;;;;19.27;11.20;;;;;;;;;;5096740;28;20078;-81
2021/07/11 07:53:43;;;;;;;16.05;10.32;;;;;;;;;;5096809;28;20115;-81
2021/07/11 07:56:09;;;;;;;21.05;7.63;;;;;;;;;;5095781;28;20115;-82
2021/07/11 07:58:35;;;;;;;15.55;8.20;;;;;;;;;;5096881;28;20416;-81
2021/07/11 08:01:01;;;;;;;21.35;9.10;;;;;;;;;;5096842;28;20348;-81
2021/07/11 08:03:27;;;;;;;9.60;4.93;;;;;;;;;;5096808;28;20406;-82
2021/07/11 08:05:53;;;;;;;12.63;5.85;;;;;;;;;;5096583;28;20092;-81
2021/07/11 08:08:20;;;;;;;13.35;4.75;;;;;;;;;;5096879;28;20036;-81
2021/07/11 08:10:46;;;;;;;4.70;3.70;;;;;;;;;;5096616;28;20444;-81
2021/07/11 08:13:12;;;;;;;10.02;4.38;;;;;;;;;;5095325;28;20047;-82
2021/07/11 08:15:38;;;;;;;8.80;6.30;;;;;;;;;;5096321;28;20073;-81
2021/07/11 08:18:05;;;;;;;8.30;4.47;;;;;;;;;;5096601;28;20036;-82
2021/07/11 08:20:31;;;;;;;11.77;5.97;;;;;;;;;;5096644;28;20074;-81
2021/07/11 08:22:58;;;;;;;9.35;4.72;;;;;;;;;;5096512;28;20036;-82
2021/07/11 08:25:24;;;;;;;11.88;5.80;;;;;;;;;;5099616;28;20047;-82
2021/07/11 08:27:50;;;;;;;11.50;4.35;;;;;;;;;;5100345;28;20016;-82
2021/07/11 08:30:18;;;;;;;8.00;4.10;;;;;;;;;;5099008;28;20035;-82
2021/07/11 08:32:45;;;;;;;8.27;4.03;;;;;;;;;;5100123;28;20024;-81
2021/07/11 08:35:11;;;;;;;6.35;3.70;;;;;;;;;;5100169;28;20032;-83
2021/07/11 08:37:38;;;;;;;8.75;3.63;;;;;;;;;;5100005;28;20027;-83
2021/07/11 08:40:04;;;;;;;5.38;3.30;;;;;;;;;;5100330;28;20028;-83
2021/07/11 08:42:31;;;;;;;8.02;3.92;;;;;;;;;;5098806;28;20460;-83
2021/07/11 08:44:57;;;;;;;7.05;3.40;;;;;;;;;;5100074;28;20039;-83
2021/07/11 08:47:23;;;;;;;9.95;3.35;;;;;;;;;;5099954;28;20020;-83
2021/07/11 08:49:49;;;;;;;8.88;3.63;;;;;;;;;;5099843;28;20043;-83
2021/07/11 08:52:15;;;;;;;8.40;4.57;;;;;;;;;;5099800;28;20024;-83
2021/07/11 08:54:42;;;;;;;10.48;4.30;;;;;;;;;;5099704;28;20028;-83
2021/07/11 08:57:09;;;;;;;10.57;4.28;;;;;;;;;;5099675;28;20467;-83
2021/07/11 08:59:36;;;;;;;9.60;5.03;;;;;;;;;;5099789;28;20035;-83
2021/07/11 09:02:02;;;;;;;10.98;5.03;;;;;;;;;;5099825;28;20016;-83
2021/07/11 09:04:37;;;;;;;9.82;4.22;;;;;;;;;;5099469;28;20050;-82
2021/07/11 09:07:05;;;;;;;9.45;3.72;;;;;;;;;;5099411;28;20046;-82
2021/07/11 09:09:32;;;;;;;11.38;5.20;;;;;;;;;;5099297;28;20092;-82
2021/07/11 09:12:01;;;;;;;6.90;4.18;;;;;;;;;;5099632;28;20024;-82
2021/07/11 09:14:28;;;;;;;10.77;4.80;;;;;;;;;;5099207;28;20085;-81
2021/07/11 09:16:55;;;;;;;7.60;4.38;;;;;;;;;;5099313;28;20028;-81
2021/07/11 09:19:25;;;;;;;9.00;4.10;;;;;;;;;;5099180;28;20030;-81
2021/07/11 09:22:01;;;;;;;8.88;4.43;;;;;;;;;;5099453;28;20025;-81
2021/07/11 09:24:28;;;;;;;9.15;4.38;;;;;;;;;;5098145;28;20051;-81
2021/07/11 09:26:55;;;;;;;7.72;3.83;;;;;;;;;;5099044;28;20410;-81
2021/07/11 09:29:28;;;;;;;6.63;3.60;;;;;;;;;;5099145;28;20024;-81
2021/07/11 09:31:54;;;;;;;8.93;3.85;;;;;;;;;;5099038;28;20020;-81
2021/07/11 09:34:22;;;;;;;6.72;3.50;;;;;;;;;;5099751;28;20028;-82
2021/07/11 09:37:03;;;;;;;7.93;4.13;;;;;;;;;;5098937;28;20024;-81
2021/07/11 09:39:29;;;;;;;8.93;4.80;;;;;;;;;;5098993;28;20422;-82
2021/07/11 09:41:55;;;;;;;9.60;4.55;;;;;;;;;;5098846;28;20433;-82
2021/07/11 09:44:21;;;;;;;8.70;4.90;;;;;;;;;;5098489;28;20036;-82
2021/07/11 09:46:47;;;;;;;9.18;4.22;;;;;;;;;;5100874;28;20103;-82
2021/07/11 09:49:17;;;;;;;8.57;5.13;;;;;;;;;;5098952;28;20026;-81
2021/07/11 09:51:43;;;;;;;12.98;6.95;;;;;;;;;;5098480;28;20028;-81
2021/07/11 09:54:11;;;;;;;11.18;5.80;;;;;;;;;;5097539;28;20020;-82
2021/07/11 09:56:39;;;;;;;8.45;4.68;;;;;;;;;;5105927;28;20313;-81
2021/07/11 09:59:06;;;;;;;9.88;4.50;;;;;;;;;;5118724;28;20027;-81
2021/07/11 10:01:33;;;;;;;7.32;4.88;;;;;;;;;;5118855;28;20023;-81
2021/07/11 10:04:00;;;;;;;6.38;4.72;;;;;;;;;;5119100;28;20173;-81
2021/07/11 10:06:31;;;;;;;10.98;4.55;;;;;;;;;;5117007;28;20024;-82
2021/07/11 10:08:57;;;;;;;8.75;4.47;;;;;;;;;;5116936;28;20035;-81
2021/07/11 10:11:24;;;;;;;10.25;6.15;;;;;;;;;;5102169;28;20352;-81
2021/07/11 10:13:50;;;;;;;9.25;6.13;;;;;;;;;;5101062;28;20023;-82
2021/07/11 10:16:17;;;;;;;13.13;7.97;;;;;;;;;;5118395;28;20401;-82
2021/07/11 10:18:43;;;;;;;16.70;9.77;;;;;;;;;;5117024;28;20456;-82
2021/07/11 10:21:10;;;;;;;10.95;7.10;;;;;;;;;;5118303;28;20024;-83
2021/07/11 10:23:38;;;;;;;9.02;4.07;;;;;;;;;;5118290;28;20028;-82
2021/07/11 10:26:08;;;;;;;6.90;3.80;;;;;;;;;;5117250;28;20421;-82
2021/07/11 10:28:38;;;;;;;5.95;3.42;;;;;;;;;;5118137;28;20102;-83
2021/07/11 10:31:04;;;;;;;10.60;3.37;;;;;;;;;;5118295;28;20099;-83
2021/07/11 10:33:31;;;;;;;5.13;3.35;;;;;;;;;;5117121;28;20081;-82
2021/07/11 10:35:59;;;;;;;10.45;3.85;;;;;;;;;;5118149;28;20035;-82
2021/07/11 10:38:27;;;;;;;4.35;3.80;;;;;;;;;;5118158;28;20111;-83
2021/07/11 10:40:53;;;;;;;7.40;3.33;;;;;;;;;;5116910;28;20027;-88
2021/07/11 10:43:19;;;;;;;9.00;3.55;;;;;;;;;;5118446;28;20034;-85
2021/07/11 10:45:49;;;;;;;5.50;3.60;;;;;;;;;;5118106;28;20363;-85
2021/07/11 10:48:15;;;;;;;9.20;3.33;;;;;;;;;;5117583;28;20028;-85
2021/07/11 10:50:42;;;;;;;7.80;3.85;;;;;;;;;;5118301;28;20030;-84
2021/07/11 10:53:33;;;;;;;8.02;3.92;;;;;;;;;;5116808;28;20038;-84
2021/07/11 10:55:59;;;;;;;7.80;3.75;;;;;;;;;;5117925;28;20035;-85
2021/07/11 10:58:25;;;;;;;5.70;3.90;;;;;;;;;;5117953;28;20027;-84
2021/07/11 11:00:54;;;;;;;10.55;3.42;;;;;;;;;;5117692;28;20046;-84
2021/07/11 11:03:23;;;;;;;9.95;4.00;;;;;;;;;;5117936;28;20024;-83
2021/07/11 11:05:50;;;;;;;9.25;4.28;;;;;;;;;;5116846;28;20420;-83
2021/07/11 11:08:21;;;;;;;5.25;3.78;;;;;;;;;;5117996;28;20023;-83
2021/07/11 11:10:48;;;;;;;6.28;3.97;;;;;;;;;;5117663;28;20094;-83
2021/07/11 11:13:17;;;;;;;5.47;4.18;;;;;;;;;;5117586;28;20463;-83
2021/07/11 11:15:48;;;;;;;6.50;3.60;;;;;;;;;;5116076;28;20044;-83
2021/07/11 11:18:15;;;;;;;7.28;3.92;;;;;;;;;;5117699;28;20047;-83
2021/07/11 11:20:41;;;;;;;11.50;3.92;;;;;;;;;;5115870;28;20466;-81
2021/07/11 11:23:11;;;;;;;12.10;3.95;;;;;;;;;;5106131;28;20055;-82
2021/07/11 11:25:38;;;;;;;8.00;4.40;;;;;;;;;;5096952;28;20030;-82
2021/07/11 11:28:04;;;;;;;7.05;3.67;;;;;;;;;;5096991;28;20406;-82
2021/07/11 11:30:31;;;;;;;9.02;3.40;;;;;;;;;;5097177;28;20035;-83
2021/07/11 11:32:58;;;;;;;10.70;4.30;;;;;;;;;;5096948;28;20061;-83
2021/07/11 11:35:25;;;;;;;6.63;3.80;;;;;;;;;;5099233;28;20024;-82
2021/07/11 11:40:54;;;;;;;9.88;3.85;;;;;;;;;;5098853;28;20473;-83
2021/07/11 11:43:22;;;;;;;8.02;4.35;;;;;;;;;;5108644;28;20088;-83
2021/07/11 11:45:48;;;;;;;3.63;3.22;;;;;;;;;;5105697;28;20381;-83
2021/07/11 11:48:16;;;;;;;8.98;3.58;;;;;;;;;;5117193;28;20046;-82
2021/07/11 11:50:42;;;;;;;10.23;3.38;;;;;;;;;;5100273;28;20465;-81
2021/07/11 11:53:16;;;;;;;6.38;3.35;;;;;;;;;;5097006;28;20028;-82
2021/07/11 11:55:52;;;;;;;7.15;3.15;;;;;;;;;;5096786;28;20028;-82
2021/07/11 11:58:28;;;;;;;4.78;3.78;;;;;;;;;;5097911;28;20024;-82
2021/07/11 12:01:05;;;;;;;5.32;3.63;;;;;;;;;;5099791;28;20030;-82
2021/07/11 12:03:31;;;;;;;8.38;4.07;;;;;;;;;;5121122;28;20067;-82
2021/07/11 12:06:01;;;;;;;8.77;3.13;;;;;;;;;;5121637;28;20027;-84
2021/07/11 12:08:33;;;;;;;5.72;3.72;;;;;;;;;;5116054;28;20115;-82
2021/07/11 12:10:59;;;;;;;6.30;3.35;;;;;;;;;;5102398;28;20426;-83
2021/07/11 12:13:26;;;;;;;7.68;3.22;;;;;;;;;;5100314;28;20337;-83
2021/07/11 12:16:03;;;;;;;5.82;3.15;;;;;;;;;;5099424;28;20364;-81
2021/07/11 12:18:40;;;;;;;4.85;2.95;;;;;;;;;;5100341;28;20028;-82
2021/07/11 12:21:06;;;;;;;7.72;3.78;;;;;;;;;;5100352;28;20066;-82
2021/07/11 12:23:32;;;;;;;4.18;3.35;;;;;;;;;;5099100;28;20043;-82
2021/07/11 12:26:00;;;;;;;5.10;3.40;;;;;;;;;;5100213;28;20469;-82
2021/07/11 12:28:26;;;;;;;7.30;3.50;;;;;;;;;;5100204;28;20047;-83
2021/07/11 12:30:54;;;;;;;6.30;3.45;;;;;;;;;;5100154;28;20028;-83
2021/07/11 12:33:28;;;;;;;8.70;3.63;;;;;;;;;;5100339;28;20020;-83
2021/07/11 12:35:58;;;;;;;4.80;2.60;;;;;;;;;;5100088;28;20028;-82
2021/07/11 12:38:31;;;;;;;5.13;3.15;;;;;;;;;;5100099;28;20070;-83
2021/07/11 12:40:58;;;;;;;3.75;2.90;;;;;;;;;;5100348;28;20054;-83
2021/07/11 12:43:34;;;;;;;6.78;3.17;;;;;;;;;;5100150;28;20110;-83
2021/07/11 12:46:00;;;;;;;7.10;2.85;;;;;;;;;;5099720;28;20426;-83
2021/07/11 12:48:38;;;;;;;5.05;3.08;;;;;;;;;;5100028;28;20028;-83
2021/07/11 12:51:20;;;;;;;5.53;2.80;;;;;;;;;;5100038;28;20016;-83
2021/07/11 12:53:47;;;;;;;6.13;2.70;;;;;;;;;;5099664;28;20020;-83
2021/07/11 12:56:18;;;;;;;5.28;2.70;;;;;;;;;;5099645;28;20024;-82
2021/07/11 12:58:45;;;;;;;8.95;3.10;;;;;;;;;;5099681;28;20027;-82
2021/07/11 13:01:12;;;;;;;5.95;2.80;;;;;;;;;;5105180;28;20052;-81
2021/07/11 13:03:38;;;;;;;6.05;3.05;;;;;;;;;;5106455;28;20032;-82
2021/07/11 13:06:04;;;;;;;10.55;2.83;;;;;;;;;;5099533;28;20028;-82
2021/07/11 13:08:30;;;;;;;5.60;2.45;;;;;;;;;;5107125;28;20302;-82
2021/07/11 13:10:56;;;;;;;6.65;2.78;;;;;;;;;;5100558;28;20028;-82
2021/07/11 13:13:22;;;;;;;5.38;2.90;;;;;;;;;;5101375;28;20020;-82
2021/07/11 13:15:49;;;;;;;6.57;3.22;;;;;;;;;;5108616;28;20085;-82
2021/07/11 13:18:15;;;;;;;5.15;2.92;;;;;;;;;;5099292;28;20042;-82
2021/07/11 13:20:42;;;;;;;5.78;2.65;;;;;;;;;;5107500;28;20059;-82
2021/07/11 13:23:09;;;;;;;6.70;3.03;;;;;;;;;;5119589;28;20020;-82
2021/07/11 13:25:35;;;;;;;4.57;3.30;;;;;;;;;;5119525;28;20035;-82
2021/07/11 13:28:01;;;;;;;6.22;2.30;;;;;;;;;;5119575;28;20026;-82
2021/07/11 13:30:30;;;;;;;9.38;2.97;;;;;;;;;;5118137;28;20031;-82
2021/07/11 13:32:59;;;;;;;3.58;2.50;;;;;;;;;;5117875;28;20114;-82
2021/07/11 13:35:26;;;;;;;5.10;2.60;;;;;;;;;;5114418;28;20028;-82
2021/07/11 13:37:52;;;;;;;6.93;3.10;;;;;;;;;;5101230;28;20053;-81
2021/07/11 13:40:19;;;;;;;4.90;2.40;;;;;;;;;;5117457;28;20045;-82
2021/07/11 13:42:46;;;;;;;3.35;2.40;;;;;;;;;;5104593;28;20097;-83
2021/07/11 13:45:13;;;;;;;7.20;2.50;;;;;;;;;;5108416;28;20059;-82
2021/07/11 13:47:39;;;;;;;8.60;2.80;;;;;;;;;;5119098;28;20016;-83
2021/07/11 13:50:07;;;;;;;10.35;3.15;;;;;;;;;;5112307;28;20085;-82
2021/07/11 13:52:34;;;;;;;5.90;3.05;;;;;;;;;;5098687;28;20016;-82
2021/07/11 13:55:00;;;;;;;4.40;3.00;;;;;;;;;;5098714;28;20028;-83
2021/07/11 13:57:26;;;;;;;4.10;3.20;;;;;;;;;;5097272;28;20077;-82
2021/07/11 13:59:52;;;;;;;5.20;2.75;;;;;;;;;;5098400;28;20497;-82
2021/07/11 14:02:20;;;;;;;3.75;2.80;;;;;;;;;;5098594;28;20124;-82
2021/07/11 14:04:47;;;;;;;5.35;2.83;;;;;;;;;;5098509;28;20359;-82
2021/07/11 14:07:13;;;;;;;7.78;3.25;;;;;;;;;;5097966;28;20114;-83
2021/07/11 14:09:39;;;;;;;19.98;3.38;;;;;;;;;;5096827;28;20357;-82
2021/07/11 14:12:07;;;;;;;5.97;3.00;;;;;;;;;;5098431;28;20024;-89
2021/07/11 14:14:33;;;;;;;7.60;3.97;;;;;;;;;;5098692;28;20040;-88
2021/07/11 14:16:59;;;;;;;6.20;3.30;;;;;;;;;;5110103;28;20016;-89
2021/07/11 14:19:25;;;;;;;4.30;2.95;;;;;;;;;;5119426;28;20024;-89
2021/07/11 14:21:51;;;;;;;5.25;3.38;;;;;;;;;;5118073;28;20019;-89
2021/07/11 14:24:17;;;;;;;11.88;3.80;;;;;;;;;;5119000;28;20094;-89
2021/07/11 14:26:43;;;;;;;5.63;3.90;;;;;;;;;;5118829;28;20030;-89
2021/07/11 14:29:09;;;;;;;4.70;3.30;;;;;;;;;;5117950;28;20016;-89
2021/07/11 14:31:35;;;;;;;4.88;3.25;;;;;;;;;;5117604;28;20055;-88
2021/07/11 14:34:01;;;;;;;7.03;3.00;;;;;;;;;;5117932;28;20035;-89
2021/07/11 14:36:27;;;;;;;6.30;4.07;;;;;;;;;;5118741;28;20405;-89